sensor_id;sensor_type;location;lat;lon;timestamp;P1;durP1;ratioP1;P2;durP2;ratioP2
4756;SDS011;2392;52.578;13.426;2022-09-27T00:01:44;2.67;;;1.80;;
4756;SDS011;2392;52.578;13.426;2022-09-27T00:04:11;5.33;;;1.90;;
4756;SDS011;2392;52.578;13.426;2022-09-27T00:06:38;2.40;;;2.20;;
4756;SDS011;2392;52.578;13.426;2022-09-27T00:09:05;3.00;;;1.90;;
4756;SDS011;2392;52.578;13.426;2022-09-27T00:11:32;2.07;;;1.73;;
4756;SDS011;2392;52.578;13.426;2022-09-27T00:14:01;2.13;;;1.93;;
4756;SDS011;2392;52.578;13.426;2022-09-27T00:16:31;2.67;;;2.23;;
4756;SDS011;2392;52.578;13.426;2022-09-27T00:19:00;2.10;;;1.90;;
4756;SDS011;2392;52.578;13.426;2022-09-27T00:21:29;3.00;;;2.10;;
4756;SDS011;2392;52.578;13.426;2022-09-27T00:23:56;2.47;;;2.00;;
4756;SDS011;2392;52.578;13.426;2022-09-27T00:26:24;2.30;;;2.10;;
4756;SDS011;2392;52.578;13.426;2022-09-27T00:28:52;2.60;;;1.70;;
4756;SDS011;2392;52.578;13.426;2022-09-27T00:31:20;1.53;;;1.40;;
4756;SDS011;2392;52.578;13.426;2022-09-27T00:33:49;2.17;;;1.80;;
4756;SDS011;2392;52.578;13.426;2022-09-27T00:36:19;7.27;;;2.33;;
4756;SDS011;2392;52.578;13.426;2022-09-27T00:38:47;1.97;;;1.87;;
4756;SDS011;2392;52.578;13.426;2022-09-27T00:41:15;3.47;;;1.87;;
4756;SDS011;2392;52.578;13.426;2022-09-27T00:43:46;3.70;;;1.90;;
4756;SDS011;2392;52.578;13.426;2022-09-27T00:46:17;2.80;;;2.20;;
4756;SDS011;2392;52.578;13.426;2022-09-27T00:48:49;1.97;;;1.73;;
4756;SDS011;2392;52.578;13.426;2022-09-27T00:51:26;4.60;;;2.17;;
4756;SDS011;2392;52.578;13.426;2022-09-27T00:53:54;1.77;;;1.67;;
4756;SDS011;2392;52.578;13.426;2022-09-27T00:56:24;2.83;;;2.07;;
4756;SDS011;2392;52.578;13.426;2022-09-27T00:58:55;1.80;;;1.70;;
4756;SDS011;2392;52.578;13.426;2022-09-27T01:01:24;3.23;;;1.90;;
4756;SDS011;2392;52.578;13.426;2022-09-27T01:03:56;2.93;;;2.17;;
4756;SDS011;2392;52.578;13.426;2022-09-27T01:06:27;2.20;;;1.47;;
4756;SDS011;2392;52.578;13.426;2022-09-27T01:08:54;1.90;;;1.70;;
4756;SDS011;2392;52.578;13.426;2022-09-27T01:11:24;6.93;;;2.10;;
4756;SDS011;2392;52.578;13.426;2022-09-27T01:14:07;2.40;;;1.70;;
4756;SDS011;2392;52.578;13.426;2022-09-27T01:16:51;2.10;;;1.90;;
4756;SDS011;2392;52.578;13.426;2022-09-27T01:19:35;2.13;;;1.90;;
4756;SDS011;2392;52.578;13.426;2022-09-27T01:22:23;2.00;;;1.90;;
4756;SDS011;2392;52.578;13.426;2022-09-27T01:25:06;7.13;;;2.57;;
4756;SDS011;2392;52.578;13.426;2022-09-27T01:28:01;2.37;;;2.17;;
4756;SDS011;2392;52.578;13.426;2022-09-27T01:30:43;2.97;;;2.07;;
4756;SDS011;2392;52.578;13.426;2022-09-27T01:33:20;2.30;;;2.10;;
4756;SDS011;2392;52.578;13.426;2022-09-27T01:36:01;3.60;;;1.90;;
4756;SDS011;2392;52.578;13.426;2022-09-27T01:38:40;2.20;;;2.10;;
4756;SDS011;2392;52.578;13.426;2022-09-27T01:41:16;2.53;;;2.33;;
4756;SDS011;2392;52.578;13.426;2022-09-27T01:44:12;2.03;;;1.93;;
4756;SDS011;2392;52.578;13.426;2022-09-27T01:46:53;2.17;;;1.93;;
4756;SDS011;2392;52.578;13.426;2022-09-27T01:49:44;2.13;;;2.03;;
4756;SDS011;2392;52.578;13.426;2022-09-27T01:52:19;2.50;;;2.30;;
4756;SDS011;2392;52.578;13.426;2022-09-27T01:54:50;2.60;;;2.10;;
4756;SDS011;2392;52.578;13.426;2022-09-27T01:57:24;2.30;;;2.10;;
4756;SDS011;2392;52.578;13.426;2022-09-27T01:59:58;2.70;;;2.20;;
4756;SDS011;2392;52.578;13.426;2022-09-27T02:02:47;1.87;;;1.77;;
4756;SDS011;2392;52.578;13.426;2022-09-27T02:05:35;2.60;;;2.00;;
4756;SDS011;2392;52.578;13.426;2022-09-27T02:08:28;2.20;;;2.00;;
4756;SDS011;2392;52.578;13.426;2022-09-27T02:11:08;2.40;;;2.20;;
4756;SDS011;2392;52.578;13.426;2022-09-27T02:13:43;3.70;;;2.40;;
4756;SDS011;2392;52.578;13.426;2022-09-27T02:16:41;3.10;;;2.90;;
4756;SDS011;2392;52.578;13.426;2022-09-27T02:19:20;8.23;;;3.43;;
4756;SDS011;2392;52.578;13.426;2022-09-27T02:21:55;4.57;;;3.67;;
4756;SDS011;2392;52.578;13.426;2022-09-27T02:24:29;3.97;;;2.97;;
4756;SDS011;2392;52.578;13.426;2022-09-27T02:27:03;3.47;;;3.27;;
4756;SDS011;2392;52.578;13.426;2022-09-27T02:29:37;3.60;;;3.00;;
4756;SDS011;2392;52.578;13.426;2022-09-27T02:32:08;4.93;;;3.20;;
4756;SDS011;2392;52.578;13.426;2022-09-27T02:34:37;2.50;;;2.30;;
4756;SDS011;2392;52.578;13.426;2022-09-27T02:37:05;2.07;;;1.97;;
4756;SDS011;2392;52.578;13.426;2022-09-27T02:39:35;2.60;;;2.40;;
4756;SDS011;2392;52.578;13.426;2022-09-27T02:42:05;2.53;;;2.07;;
4756;SDS011;2392;52.578;13.426;2022-09-27T02:44:34;2.30;;;2.10;;
4756;SDS011;2392;52.578;13.426;2022-09-27T02:47:05;2.90;;;1.77;;
4756;SDS011;2392;52.578;13.426;2022-09-27T02:49:54;2.23;;;2.10;;
4756;SDS011;2392;52.578;13.426;2022-09-27T02:52:42;2.30;;;2.10;;
4756;SDS011;2392;52.578;13.426;2022-09-27T02:55:23;2.20;;;1.97;;
4756;SDS011;2392;52.578;13.426;2022-09-27T02:58:09;1.70;;;1.60;;
4756;SDS011;2392;52.578;13.426;2022-09-27T03:01:13;3.70;;;1.67;;
4756;SDS011;2392;52.578;13.426;2022-09-27T03:04:10;4.00;;;2.00;;
4756;SDS011;2392;52.578;13.426;2022-09-27T03:06:44;2.37;;;2.23;;
4756;SDS011;2392;52.578;13.426;2022-09-27T03:09:16;3.90;;;2.70;;
4756;SDS011;2392;52.578;13.426;2022-09-27T03:11:44;1.70;;;1.60;;
4756;SDS011;2392;52.578;13.426;2022-09-27T03:14:11;2.73;;;2.10;;
4756;SDS011;2392;52.578;13.426;2022-09-27T03:16:46;2.20;;;2.00;;
4756;SDS011;2392;52.578;13.426;2022-09-27T03:19:46;4.37;;;1.83;;
4756;SDS011;2392;52.578;13.426;2022-09-27T03:22:32;1.93;;;1.83;;
4756;SDS011;2392;52.578;13.426;2022-09-27T03:24:59;2.10;;;1.90;;
4756;SDS011;2392;52.578;13.426;2022-09-27T03:27:26;2.40;;;2.20;;
4756;SDS011;2392;52.578;13.426;2022-09-27T03:29:53;2.20;;;2.00;;
4756;SDS011;2392;52.578;13.426;2022-09-27T03:32:20;2.17;;;2.07;;
4756;SDS011;2392;52.578;13.426;2022-09-27T03:35:04;1.60;;;1.50;;
4756;SDS011;2392;52.578;13.426;2022-09-27T03:37:32;4.20;;;2.43;;
4756;SDS011;2392;52.578;13.426;2022-09-27T03:40:00;2.57;;;2.20;;
4756;SDS011;2392;52.578;13.426;2022-09-27T03:42:27;3.40;;;2.30;;
4756;SDS011;2392;52.578;13.426;2022-09-27T03:44:54;5.33;;;1.90;;
4756;SDS011;2392;52.578;13.426;2022-09-27T03:47:21;4.40;;;2.50;;
4756;SDS011;2392;52.578;13.426;2022-09-27T03:49:48;3.10;;;2.00;;
4756;SDS011;2392;52.578;13.426;2022-09-27T03:52:15;2.30;;;2.20;;
4756;SDS011;2392;52.578;13.426;2022-09-27T03:54:44;7.43;;;2.00;;
4756;SDS011;2392;52.578;13.426;2022-09-27T03:57:11;3.20;;;2.67;;
4756;SDS011;2392;52.578;13.426;2022-09-27T03:59:39;2.00;;;1.90;;
4756;SDS011;2392;52.578;13.426;2022-09-27T04:02:24;3.33;;;2.00;;
4756;SDS011;2392;52.578;13.426;2022-09-27T04:05:24;3.77;;;1.87;;
4756;SDS011;2392;52.578;13.426;2022-09-27T04:08:02;7.03;;;2.33;;
4756;SDS011;2392;52.578;13.426;2022-09-27T04:10:32;3.20;;;2.23;;
4756;SDS011;2392;52.578;13.426;2022-09-27T04:13:01;6.80;;;2.20;;
4756;SDS011;2392;52.578;13.426;2022-09-27T04:15:33;2.50;;;2.40;;
4756;SDS011;2392;52.578;13.426;2022-09-27T04:18:19;2.00;;;1.90;;
4756;SDS011;2392;52.578;13.426;2022-09-27T04:21:08;2.00;;;1.90;;
4756;SDS011;2392;52.578;13.426;2022-09-27T04:23:40;2.80;;;2.20;;
4756;SDS011;2392;52.578;13.426;2022-09-27T04:26:13;6.10;;;2.10;;
4756;SDS011;2392;52.578;13.426;2022-09-27T04:28:47;2.63;;;2.17;;
4756;SDS011;2392;52.578;13.426;2022-09-27T04:31:16;3.33;;;1.83;;
4756;SDS011;2392;52.578;13.426;2022-09-27T04:33:53;5.00;;;2.40;;
4756;SDS011;2392;52.578;13.426;2022-09-27T04:36:24;2.97;;;2.67;;
4756;SDS011;2392;52.578;13.426;2022-09-27T04:39:16;2.87;;;2.37;;
4756;SDS011;2392;52.578;13.426;2022-09-27T04:41:46;2.80;;;2.30;;
4756;SDS011;2392;52.578;13.426;2022-09-27T04:44:14;2.77;;;2.27;;
4756;SDS011;2392;52.578;13.426;2022-09-27T04:46:45;2.07;;;1.90;;
4756;SDS011;2392;52.578;13.426;2022-09-27T04:49:12;2.20;;;2.10;;
4756;SDS011;2392;52.578;13.426;2022-09-27T04:51:40;3.27;;;2.00;;
4756;SDS011;2392;52.578;13.426;2022-09-27T04:54:07;7.07;;;2.77;;
4756;SDS011;2392;52.578;13.426;2022-09-27T04:56:49;2.03;;;1.90;;
4756;SDS011;2392;52.578;13.426;2022-09-27T04:59:16;2.40;;;2.20;;
4756;SDS011;2392;52.578;13.426;2022-09-27T05:01:43;2.53;;;2.33;;
4756;SDS011;2392;52.578;13.426;2022-09-27T05:04:31;2.07;;;1.97;;
4756;SDS011;2392;52.578;13.426;2022-09-27T05:06:59;2.43;;;2.27;;
4756;SDS011;2392;52.578;13.426;2022-09-27T05:09:38;2.00;;;1.90;;
4756;SDS011;2392;52.578;13.426;2022-09-27T05:12:07;2.60;;;2.40;;
4756;SDS011;2392;52.578;13.426;2022-09-27T05:14:42;2.37;;;2.27;;
4756;SDS011;2392;52.578;13.426;2022-09-27T05:17:28;2.33;;;2.17;;
4756;SDS011;2392;52.578;13.426;2022-09-27T05:20:13;2.40;;;2.20;;
4756;SDS011;2392;52.578;13.426;2022-09-27T05:22:48;3.83;;;2.37;;
4756;SDS011;2392;52.578;13.426;2022-09-27T05:25:16;3.00;;;2.30;;
4756;SDS011;2392;52.578;13.426;2022-09-27T05:27:45;3.50;;;2.50;;
4756;SDS011;2392;52.578;13.426;2022-09-27T05:30:12;2.17;;;2.07;;
4756;SDS011;2392;52.578;13.426;2022-09-27T05:32:49;2.53;;;2.43;;
4756;SDS011;2392;52.578;13.426;2022-09-27T05:35:32;10.70;;;2.93;;
4756;SDS011;2392;52.578;13.426;2022-09-27T05:38:00;2.27;;;2.07;;
4756;SDS011;2392;52.578;13.426;2022-09-27T05:40:29;2.60;;;2.40;;
4756;SDS011;2392;52.578;13.426;2022-09-27T05:42:58;3.57;;;2.30;;
4756;SDS011;2392;52.578;13.426;2022-09-27T05:45:25;2.37;;;2.13;;
4756;SDS011;2392;52.578;13.426;2022-09-27T05:47:55;5.00;;;3.20;;
4756;SDS011;2392;52.578;13.426;2022-09-27T05:50:24;2.63;;;2.43;;
4756;SDS011;2392;52.578;13.426;2022-09-27T05:52:52;2.93;;;2.73;;
4756;SDS011;2392;52.578;13.426;2022-09-27T05:55:19;2.90;;;2.60;;
4756;SDS011;2392;52.578;13.426;2022-09-27T05:57:54;3.97;;;2.93;;
4756;SDS011;2392;52.578;13.426;2022-09-27T06:00:27;4.00;;;2.80;;
4756;SDS011;2392;52.578;13.426;2022-09-27T06:02:54;2.33;;;2.23;;
4756;SDS011;2392;52.578;13.426;2022-09-27T06:05:41;6.23;;;2.63;;
4756;SDS011;2392;52.578;13.426;2022-09-27T06:08:28;3.33;;;2.80;;
4756;SDS011;2392;52.578;13.426;2022-09-27T06:11:00;2.80;;;2.60;;
4756;SDS011;2392;52.578;13.426;2022-09-27T06:13:30;3.30;;;2.60;;
4756;SDS011;2392;52.578;13.426;2022-09-27T06:16:00;3.20;;;2.20;;
4756;SDS011;2392;52.578;13.426;2022-09-27T06:18:27;3.07;;;2.50;;
4756;SDS011;2392;52.578;13.426;2022-09-27T06:20:54;2.40;;;2.20;;
4756;SDS011;2392;52.578;13.426;2022-09-27T06:23:24;2.73;;;2.47;;
4756;SDS011;2392;52.578;13.426;2022-09-27T06:25:52;2.73;;;2.53;;
4756;SDS011;2392;52.578;13.426;2022-09-27T06:28:37;3.73;;;2.43;;
4756;SDS011;2392;52.578;13.426;2022-09-27T06:31:06;3.60;;;2.30;;
4756;SDS011;2392;52.578;13.426;2022-09-27T06:33:45;8.30;;;2.93;;
4756;SDS011;2392;52.578;13.426;2022-09-27T06:36:13;3.57;;;2.83;;
4756;SDS011;2392;52.578;13.426;2022-09-27T06:38:40;7.50;;;2.93;;
4756;SDS011;2392;52.578;13.426;2022-09-27T06:41:18;3.47;;;2.30;;
4756;SDS011;2392;52.578;13.426;2022-09-27T06:44:04;3.97;;;2.33;;
4756;SDS011;2392;52.578;13.426;2022-09-27T06:46:47;3.33;;;2.80;;
4756;SDS011;2392;52.578;13.426;2022-09-27T06:49:29;3.20;;;2.77;;
4756;SDS011;2392;52.578;13.426;2022-09-27T06:51:56;2.20;;;2.00;;
4756;SDS011;2392;52.578;13.426;2022-09-27T06:54:23;2.93;;;2.70;;
4756;SDS011;2392;52.578;13.426;2022-09-27T06:56:50;2.90;;;2.50;;
4756;SDS011;2392;52.578;13.426;2022-09-27T06:59:17;2.63;;;2.50;;
4756;SDS011;2392;52.578;13.426;2022-09-27T07:02:22;5.90;;;2.90;;
4756;SDS011;2392;52.578;13.426;2022-09-27T07:05:08;2.60;;;2.40;;
4756;SDS011;2392;52.578;13.426;2022-09-27T07:08:04;4.07;;;2.70;;
4756;SDS011;2392;52.578;13.426;2022-09-27T07:10:33;4.03;;;2.50;;
4756;SDS011;2392;52.578;13.426;2022-09-27T07:13:02;5.70;;;3.00;;
4756;SDS011;2392;52.578;13.426;2022-09-27T07:15:29;4.30;;;2.60;;
4756;SDS011;2392;52.578;13.426;2022-09-27T07:17:58;3.37;;;3.07;;
4756;SDS011;2392;52.578;13.426;2022-09-27T07:20:27;3.30;;;3.00;;
4756;SDS011;2392;52.578;13.426;2022-09-27T07:22:56;3.10;;;2.90;;
4756;SDS011;2392;52.578;13.426;2022-09-27T07:25:24;3.20;;;2.90;;
4756;SDS011;2392;52.578;13.426;2022-09-27T07:27:51;15.43;;;3.47;;
4756;SDS011;2392;52.578;13.426;2022-09-27T07:30:19;4.87;;;3.03;;
4756;SDS011;2392;52.578;13.426;2022-09-27T07:32:47;4.57;;;3.60;;
4756;SDS011;2392;52.578;13.426;2022-09-27T07:35:16;5.60;;;3.40;;
4756;SDS011;2392;52.578;13.426;2022-09-27T07:37:43;4.07;;;3.67;;
4756;SDS011;2392;52.578;13.426;2022-09-27T07:40:11;5.60;;;4.30;;
4756;SDS011;2392;52.578;13.426;2022-09-27T07:42:38;3.20;;;3.00;;
4756;SDS011;2392;52.578;13.426;2022-09-27T07:45:07;4.10;;;3.33;;
4756;SDS011;2392;52.578;13.426;2022-09-27T07:47:54;3.83;;;3.43;;
4756;SDS011;2392;52.578;13.426;2022-09-27T07:50:38;3.37;;;3.10;;
4756;SDS011;2392;52.578;13.426;2022-09-27T07:53:32;5.00;;;2.93;;
4756;SDS011;2392;52.578;13.426;2022-09-27T07:56:29;4.37;;;3.93;;
4756;SDS011;2392;52.578;13.426;2022-09-27T07:58:56;3.43;;;3.13;;
4756;SDS011;2392;52.578;13.426;2022-09-27T08:01:23;3.10;;;2.80;;
4756;SDS011;2392;52.578;13.426;2022-09-27T08:03:51;3.83;;;3.10;;
4756;SDS011;2392;52.578;13.426;2022-09-27T08:06:20;3.13;;;2.83;;
4756;SDS011;2392;52.578;13.426;2022-09-27T08:08:48;3.60;;;3.30;;
4756;SDS011;2392;52.578;13.426;2022-09-27T08:11:16;3.20;;;2.80;;
4756;SDS011;2392;52.578;13.426;2022-09-27T08:13:46;4.73;;;3.00;;
4756;SDS011;2392;52.578;13.426;2022-09-27T08:16:18;4.23;;;3.60;;
4756;SDS011;2392;52.578;13.426;2022-09-27T08:19:09;4.13;;;2.70;;
4756;SDS011;2392;52.578;13.426;2022-09-27T08:22:06;4.70;;;2.93;;
4756;SDS011;2392;52.578;13.426;2022-09-27T08:24:40;2.33;;;2.23;;
4756;SDS011;2392;52.578;13.426;2022-09-27T08:27:43;7.60;;;2.63;;
4756;SDS011;2392;52.578;13.426;2022-09-27T08:30:40;2.60;;;2.40;;
4756;SDS011;2392;52.578;13.426;2022-09-27T08:33:08;4.00;;;2.50;;
4756;SDS011;2392;52.578;13.426;2022-09-27T08:35:34;3.10;;;2.90;;
4756;SDS011;2392;52.578;13.426;2022-09-27T08:38:03;5.63;;;3.10;;
4756;SDS011;2392;52.578;13.426;2022-09-27T08:40:35;2.73;;;2.33;;
4756;SDS011;2392;52.578;13.426;2022-09-27T08:43:12;2.90;;;2.70;;
4756;SDS011;2392;52.578;13.426;2022-09-27T08:45:50;3.40;;;2.50;;
4756;SDS011;2392;52.578;13.426;2022-09-27T08:48:28;2.93;;;2.63;;
4756;SDS011;2392;52.578;13.426;2022-09-27T08:50:56;2.20;;;2.10;;
4756;SDS011;2392;52.578;13.426;2022-09-27T08:53:29;3.20;;;2.90;;
4756;SDS011;2392;52.578;13.426;2022-09-27T08:56:01;2.97;;;2.67;;
4756;SDS011;2392;52.578;13.426;2022-09-27T08:58:38;3.43;;;3.13;;
4756;SDS011;2392;52.578;13.426;2022-09-27T09:01:17;3.10;;;2.80;;
4756;SDS011;2392;52.578;13.426;2022-09-27T09:04:10;2.90;;;2.50;;
4756;SDS011;2392;52.578;13.426;2022-09-27T09:06:44;2.93;;;2.63;;
4756;SDS011;2392;52.578;13.426;2022-09-27T09:09:25;4.57;;;3.50;;
4756;SDS011;2392;52.578;13.426;2022-09-27T09:12:13;4.20;;;3.20;;
4756;SDS011;2392;52.578;13.426;2022-09-27T09:15:11;5.20;;;3.13;;
4756;SDS011;2392;52.578;13.426;2022-09-27T09:18:02;3.13;;;2.90;;
4756;SDS011;2392;52.578;13.426;2022-09-27T09:20:52;2.93;;;2.80;;
4756;SDS011;2392;52.578;13.426;2022-09-27T09:26:27;2.43;;;2.33;;
4756;SDS011;2392;52.578;13.426;2022-09-27T09:29:03;3.60;;;2.50;;
4756;SDS011;2392;52.578;13.426;2022-09-27T09:31:40;5.50;;;3.17;;
4756;SDS011;2392;52.578;13.426;2022-09-27T09:34:12;3.37;;;3.07;;
4756;SDS011;2392;52.578;13.426;2022-09-27T09:36:45;2.93;;;2.73;;
4756;SDS011;2392;52.578;13.426;2022-09-27T09:39:16;2.60;;;2.40;;
4756;SDS011;2392;52.578;13.426;2022-09-27T09:41:53;5.23;;;2.97;;
4756;SDS011;2392;52.578;13.426;2022-09-27T09:44:28;2.87;;;2.60;;
4756;SDS011;2392;52.578;13.426;2022-09-27T09:47:01;3.27;;;3.07;;
4756;SDS011;2392;52.578;13.426;2022-09-27T09:49:34;6.13;;;2.90;;
4756;SDS011;2392;52.578;13.426;2022-09-27T09:52:09;3.10;;;2.90;;
4756;SDS011;2392;52.578;13.426;2022-09-27T09:54:40;2.90;;;2.70;;
4756;SDS011;2392;52.578;13.426;2022-09-27T09:57:14;3.40;;;2.80;;
4756;SDS011;2392;52.578;13.426;2022-09-27T09:59:44;3.03;;;2.77;;
4756;SDS011;2392;52.578;13.426;2022-09-27T10:02:20;3.70;;;3.03;;
4756;SDS011;2392;52.578;13.426;2022-09-27T10:04:58;3.20;;;3.00;;
4756;SDS011;2392;52.578;13.426;2022-09-27T10:07:25;3.30;;;3.00;;
4756;SDS011;2392;52.578;13.426;2022-09-27T10:09:54;2.80;;;2.60;;
4756;SDS011;2392;52.578;13.426;2022-09-27T10:12:45;3.53;;;3.27;;
4756;SDS011;2392;52.578;13.426;2022-09-27T10:15:16;2.80;;;2.60;;
4756;SDS011;2392;52.578;13.426;2022-09-27T10:17:45;3.97;;;3.63;;
4756;SDS011;2392;52.578;13.426;2022-09-27T10:20:20;6.27;;;3.03;;
4756;SDS011;2392;52.578;13.426;2022-09-27T10:22:57;2.83;;;2.50;;
4756;SDS011;2392;52.578;13.426;2022-09-27T10:25:46;3.60;;;2.70;;
4756;SDS011;2392;52.578;13.426;2022-09-27T10:28:38;3.73;;;2.90;;
4756;SDS011;2392;52.578;13.426;2022-09-27T10:31:11;3.03;;;2.83;;
4756;SDS011;2392;52.578;13.426;2022-09-27T10:33:51;3.70;;;3.40;;
4756;SDS011;2392;52.578;13.426;2022-09-27T10:36:23;3.20;;;3.00;;
4756;SDS011;2392;52.578;13.426;2022-09-27T10:38:52;2.67;;;2.47;;
4756;SDS011;2392;52.578;13.426;2022-09-27T10:41:31;3.03;;;2.77;;
4756;SDS011;2392;52.578;13.426;2022-09-27T10:44:19;4.83;;;3.27;;
4756;SDS011;2392;52.578;13.426;2022-09-27T10:46:59;2.83;;;2.73;;
4756;SDS011;2392;52.578;13.426;2022-09-27T10:49:38;3.10;;;2.87;;
4756;SDS011;2392;52.578;13.426;2022-09-27T10:52:44;3.07;;;2.87;;
4756;SDS011;2392;52.578;13.426;2022-09-27T10:55:15;7.30;;;3.40;;
4756;SDS011;2392;52.578;13.426;2022-09-27T10:57:50;3.77;;;3.30;;
4756;SDS011;2392;52.578;13.426;2022-09-27T11:00:21;3.23;;;3.03;;
4756;SDS011;2392;52.578;13.426;2022-09-27T11:02:50;5.37;;;3.90;;
4756;SDS011;2392;52.578;13.426;2022-09-27T11:05:28;3.60;;;3.30;;
4756;SDS011;2392;52.578;13.426;2022-09-27T11:07:58;2.93;;;2.77;;
4756;SDS011;2392;52.578;13.426;2022-09-27T11:10:38;2.90;;;2.70;;
4756;SDS011;2392;52.578;13.426;2022-09-27T11:13:15;4.03;;;3.63;;
4756;SDS011;2392;52.578;13.426;2022-09-27T11:15:54;3.40;;;3.20;;
4756;SDS011;2392;52.578;13.426;2022-09-27T11:18:34;3.90;;;3.60;;
4756;SDS011;2392;52.578;13.426;2022-09-27T11:21:11;9.00;;;5.23;;
4756;SDS011;2392;52.578;13.426;2022-09-27T11:23:53;3.77;;;3.20;;
4756;SDS011;2392;52.578;13.426;2022-09-27T11:26:35;4.17;;;3.77;;
4756;SDS011;2392;52.578;13.426;2022-09-27T11:29:13;4.30;;;3.90;;
4756;SDS011;2392;52.578;13.426;2022-09-27T11:32:13;4.23;;;3.40;;
4756;SDS011;2392;52.578;13.426;2022-09-27T11:34:59;4.30;;;3.90;;
4756;SDS011;2392;52.578;13.426;2022-09-27T11:37:40;4.10;;;3.70;;
4756;SDS011;2392;52.578;13.426;2022-09-27T11:40:22;3.60;;;3.40;;
4756;SDS011;2392;52.578;13.426;2022-09-27T11:43:03;5.17;;;3.13;;
4756;SDS011;2392;52.578;13.426;2022-09-27T11:45:45;2.80;;;2.60;;
4756;SDS011;2392;52.578;13.426;2022-09-27T11:48:25;3.40;;;3.00;;
4756;SDS011;2392;52.578;13.426;2022-09-27T11:51:06;3.50;;;3.20;;
4756;SDS011;2392;52.578;13.426;2022-09-27T11:53:44;3.70;;;3.07;;
4756;SDS011;2392;52.578;13.426;2022-09-27T11:56:24;3.47;;;2.87;;
4756;SDS011;2392;52.578;13.426;2022-09-27T11:59:04;8.00;;;2.60;;
4756;SDS011;2392;52.578;13.426;2022-09-27T12:01:54;1.30;;;1.20;;
4756;SDS011;2392;52.578;13.426;2022-09-27T12:04:48;0.70;;;0.70;;
4756;SDS011;2392;52.578;13.426;2022-09-27T12:07:22;1.40;;;0.77;;
4756;SDS011;2392;52.578;13.426;2022-09-27T12:09:59;0.80;;;0.80;;
4756;SDS011;2392;52.578;13.426;2022-09-27T12:12:30;0.90;;;0.90;;
4756;SDS011;2392;52.578;13.426;2022-09-27T12:15:01;1.83;;;1.13;;
4756;SDS011;2392;52.578;13.426;2022-09-27T12:17:35;0.80;;;0.80;;
4756;SDS011;2392;52.578;13.426;2022-09-27T12:20:10;0.90;;;0.90;;
4756;SDS011;2392;52.578;13.426;2022-09-27T12:22:49;0.80;;;0.80;;
4756;SDS011;2392;52.578;13.426;2022-09-27T12:25:24;1.10;;;1.00;;
4756;SDS011;2392;52.578;13.426;2022-09-27T12:28:00;1.53;;;1.20;;
4756;SDS011;2392;52.578;13.426;2022-09-27T12:30:31;1.20;;;1.13;;
4756;SDS011;2392;52.578;13.426;2022-09-27T12:33:04;3.03;;;1.60;;
4756;SDS011;2392;52.578;13.426;2022-09-27T12:35:41;1.93;;;1.30;;
4756;SDS011;2392;52.578;13.426;2022-09-27T12:38:12;2.13;;;1.27;;
4756;SDS011;2392;52.578;13.426;2022-09-27T12:40:43;2.03;;;1.93;;
4756;SDS011;2392;52.578;13.426;2022-09-27T12:43:16;1.63;;;1.37;;
4756;SDS011;2392;52.578;13.426;2022-09-27T12:45:57;1.30;;;1.20;;
4756;SDS011;2392;52.578;13.426;2022-09-27T12:48:34;1.73;;;1.63;;
4756;SDS011;2392;52.578;13.426;2022-09-27T12:51:08;3.27;;;3.07;;
4756;SDS011;2392;52.578;13.426;2022-09-27T12:53:40;1.70;;;1.60;;
4756;SDS011;2392;52.578;13.426;2022-09-27T12:56:31;2.73;;;2.13;;
4756;SDS011;2392;52.578;13.426;2022-09-27T12:59:32;1.37;;;1.30;;
4756;SDS011;2392;52.578;13.426;2022-09-27T13:02:21;1.97;;;1.63;;
4756;SDS011;2392;52.578;13.426;2022-09-27T13:05:33;1.60;;;1.50;;
4756;SDS011;2392;52.578;13.426;2022-09-27T13:08:38;1.50;;;1.40;;
4756;SDS011;2392;52.578;13.426;2022-09-27T13:11:28;1.80;;;1.40;;
4756;SDS011;2392;52.578;13.426;2022-09-27T13:14:04;1.67;;;1.23;;
4756;SDS011;2392;52.578;13.426;2022-09-27T13:16:40;2.10;;;1.70;;
4756;SDS011;2392;52.578;13.426;2022-09-27T13:19:21;1.40;;;1.17;;
4756;SDS011;2392;52.578;13.426;2022-09-27T13:22:05;3.23;;;1.27;;
4756;SDS011;2392;52.578;13.426;2022-09-27T13:25:00;1.63;;;1.47;;
4756;SDS011;2392;52.578;13.426;2022-09-27T13:27:49;1.87;;;1.10;;
4756;SDS011;2392;52.578;13.426;2022-09-27T13:33:29;1.23;;;1.13;;
4756;SDS011;2392;52.578;13.426;2022-09-27T13:36:15;1.77;;;1.67;;
4756;SDS011;2392;52.578;13.426;2022-09-27T13:39:04;4.33;;;1.43;;
4756;SDS011;2392;52.578;13.426;2022-09-27T13:42:13;2.60;;;1.20;;
4756;SDS011;2392;52.578;13.426;2022-09-27T13:45:07;0.93;;;0.90;;
4756;SDS011;2392;52.578;13.426;2022-09-27T13:47:44;1.40;;;1.33;;
4756;SDS011;2392;52.578;13.426;2022-09-27T13:50:33;1.57;;;1.47;;
4756;SDS011;2392;52.578;13.426;2022-09-27T13:53:16;2.77;;;1.50;;
4756;SDS011;2392;52.578;13.426;2022-09-27T13:55:49;1.53;;;1.43;;
4756;SDS011;2392;52.578;13.426;2022-09-27T13:58:49;4.00;;;1.40;;
4756;SDS011;2392;52.578;13.426;2022-09-27T14:01:52;1.60;;;1.50;;
4756;SDS011;2392;52.578;13.426;2022-09-27T14:04:28;1.83;;;1.30;;
4756;SDS011;2392;52.578;13.426;2022-09-27T14:07:00;1.47;;;1.20;;
4756;SDS011;2392;52.578;13.426;2022-09-27T14:09:29;2.07;;;1.57;;
4756;SDS011;2392;52.578;13.426;2022-09-27T14:12:07;1.60;;;1.50;;
4756;SDS011;2392;52.578;13.426;2022-09-27T14:14:39;2.27;;;1.97;;
4756;SDS011;2392;52.578;13.426;2022-09-27T14:17:07;1.73;;;1.63;;
4756;SDS011;2392;52.578;13.426;2022-09-27T14:19:37;2.50;;;2.40;;
4756;SDS011;2392;52.578;13.426;2022-09-27T14:22:11;2.30;;;2.20;;
4756;SDS011;2392;52.578;13.426;2022-09-27T14:25:12;1.70;;;1.60;;
4756;SDS011;2392;52.578;13.426;2022-09-27T14:27:44;2.20;;;2.10;;
4756;SDS011;2392;52.578;13.426;2022-09-27T14:30:22;1.80;;;1.70;;
4756;SDS011;2392;52.578;13.426;2022-09-27T14:33:25;2.27;;;2.17;;
4756;SDS011;2392;52.578;13.426;2022-09-27T14:35:55;1.90;;;1.60;;
4756;SDS011;2392;52.578;13.426;2022-09-27T14:38:40;1.53;;;1.43;;
4756;SDS011;2392;52.578;13.426;2022-09-27T14:41:18;1.97;;;1.77;;
4756;SDS011;2392;52.578;13.426;2022-09-27T14:43:45;2.03;;;1.83;;
4756;SDS011;2392;52.578;13.426;2022-09-27T14:46:24;1.80;;;1.57;;
4756;SDS011;2392;52.578;13.426;2022-09-27T14:48:53;2.00;;;1.90;;
4756;SDS011;2392;52.578;13.426;2022-09-27T14:51:21;2.20;;;2.00;;
4756;SDS011;2392;52.578;13.426;2022-09-27T14:53:53;2.70;;;1.53;;
4756;SDS011;2392;52.578;13.426;2022-09-27T14:56:23;2.30;;;2.10;;
4756;SDS011;2392;52.578;13.426;2022-09-27T14:58:55;1.73;;;1.53;;
4756;SDS011;2392;52.578;13.426;2022-09-27T15:01:28;1.80;;;1.63;;
4756;SDS011;2392;52.578;13.426;2022-09-27T15:03:55;2.00;;;1.90;;
4756;SDS011;2392;52.578;13.426;2022-09-27T15:06:28;2.00;;;1.80;;
4756;SDS011;2392;52.578;13.426;2022-09-27T15:08:55;1.83;;;1.77;;
4756;SDS011;2392;52.578;13.426;2022-09-27T15:11:23;2.63;;;2.37;;
4756;SDS011;2392;52.578;13.426;2022-09-27T15:13:51;3.53;;;2.47;;
4756;SDS011;2392;52.578;13.426;2022-09-27T15:16:19;2.77;;;2.57;;
4756;SDS011;2392;52.578;13.426;2022-09-27T15:18:57;2.20;;;2.10;;
4756;SDS011;2392;52.578;13.426;2022-09-27T15:21:28;3.33;;;2.30;;
4756;SDS011;2392;52.578;13.426;2022-09-27T15:23:56;2.17;;;2.07;;
4756;SDS011;2392;52.578;13.426;2022-09-27T15:26:24;3.10;;;2.40;;
4756;SDS011;2392;52.578;13.426;2022-09-27T15:28:59;2.50;;;2.40;;
4756;SDS011;2392;52.578;13.426;2022-09-27T15:31:28;7.47;;;2.77;;
4756;SDS011;2392;52.578;13.426;2022-09-27T15:33:57;3.57;;;3.27;;
4756;SDS011;2392;52.578;13.426;2022-09-27T15:39:18;2.93;;;2.73;;
4756;SDS011;2392;52.578;13.426;2022-09-27T15:42:07;2.83;;;2.63;;
4756;SDS011;2392;52.578;13.426;2022-09-27T15:44:38;4.47;;;2.50;;
4756;SDS011;2392;52.578;13.426;2022-09-27T15:53:00;3.07;;;2.87;;
4756;SDS011;2392;52.578;13.426;2022-09-27T15:55:29;2.90;;;2.67;;
4756;SDS011;2392;52.578;13.426;2022-09-27T15:58:00;3.97;;;3.37;;
4756;SDS011;2392;52.578;13.426;2022-09-27T16:00:29;3.70;;;3.37;;
4756;SDS011;2392;52.578;13.426;2022-09-27T16:02:57;8.13;;;3.73;;
4756;SDS011;2392;52.578;13.426;2022-09-27T16:05:23;4.60;;;4.20;;
4756;SDS011;2392;52.578;13.426;2022-09-27T16:07:52;3.60;;;3.40;;
4756;SDS011;2392;52.578;13.426;2022-09-27T16:10:21;3.80;;;3.13;;